Time;durP1;ratioP1;P1;durP2;ratioP2;P2;SDS_P1;SDS_P2;PMS_P1;PMS_P2;Temp;Humidity;BMP_temperature;BMP_pressure;BME280_temperature;BME280_humidity;BME280_pressure;Samples;Min_cycle;Max_cycle;Signal;HPM_P1;HPM_P2
2021/12/03 00:00:55;;;;;;;;;20.33;20.00;13.70;52.80;;;;;;5074238;28;8787;-71
2021/12/03 00:03:21;;;;;;;;;18.33;18.00;13.60;53.00;;;;;;5075139;28;9399;-74
2021/12/03 00:05:47;;;;;;;;;20.67;20.67;13.90;52.20;;;;;;5075105;28;8799;-73
2021/12/03 00:08:14;;;;;;;;;21.33;20.67;14.10;51.20;;;;;;5073758;28;8772;-72
2021/12/03 00:10:40;;;;;;;;;24.67;24.67;14.00;51.60;;;;;;5075203;28;8869;-71
2021/12/03 00:13:07;;;;;;;;;33.33;32.00;14.00;51.60;;;;;;5075213;28;8859;-73
2021/12/03 00:15:34;;;;;;;;;32.00;30.67;13.50;53.70;;;;;;5075029;28;8760;-71
2021/12/03 00:18:01;;;;;;;;;20.00;20.00;13.70;53.20;;;;;;5075353;28;8867;-72
2021/12/03 00:20:27;;;;;;;;;15.67;15.67;13.50;53.90;;;;;;5075218;28;8768;-73
2021/12/03 00:22:57;;;;;;;;;20.67;20.67;13.20;55.60;;;;;;5075177;28;8760;-72
2021/12/03 00:25:24;;;;;;;;;29.67;29.00;13.10;57.10;;;;;;5075223;28;8779;-73
2021/12/03 00:27:50;;;;;;;;;29.67;29.67;12.80;60.90;;;;;;5075364;28;8789;-71
2021/12/03 00:30:17;;;;;;;;;38.25;36.25;12.50;62.80;;;;;;5074864;28;8757;-71
2021/12/03 00:32:44;;;;;;;;;39.25;36.50;12.40;64.00;;;;;;5074701;28;8771;-71
2021/12/03 00:35:11;;;;;;;;;43.75;40.25;12.20;65.00;;;;;;5073784;28;8780;-72
2021/12/03 00:37:39;;;;;;;;;40.25;36.75;12.40;64.60;;;;;;5074797;28;8741;-72
2021/12/03 00:40:11;;;;;;;;;40.00;37.00;11.70;67.00;;;;;;5074634;28;8761;-73
2021/12/03 00:42:38;;;;;;;;;39.25;36.25;11.40;68.70;;;;;;5074577;28;8808;-73
2021/12/03 00:45:06;;;;;;;;;32.50;32.00;11.00;70.90;;;;;;5074618;28;8784;-71
2021/12/03 00:47:32;;;;;;;;;34.25;33.25;10.80;71.70;;;;;;5074562;28;8768;-72
2021/12/03 00:49:57;;;;;;;;;31.75;31.75;10.80;72.10;;;;;;5074839;28;8804;-72
2021/12/03 00:52:23;;;;;;;;;29.50;29.50;10.30;73.50;;;;;;5074828;28;8780;-72
2021/12/03 00:54:49;;;;;;;;;34.00;33.25;10.00;75.70;;;;;;5074552;28;8849;-72
2021/12/03 00:57:16;;;;;;;;;36.25;35.00;10.00;76.20;;;;;;5074585;28;8822;-72
2021/12/03 00:59:42;;;;;;;;;37.00;35.75;10.20;75.70;;;;;;5074374;28;8899;-73
2021/12/03 01:02:07;;;;;;;;;24.50;24.50;10.20;75.00;;;;;;5074804;28;8800;-72
2021/12/03 01:04:34;;;;;;;;;23.33;23.33;9.70;77.10;;;;;;5074538;28;9513;-72
2021/12/03 01:07:00;;;;;;;;;25.00;25.00;9.70;77.60;;;;;;5074334;28;9446;-72
2021/12/03 01:09:26;;;;;;;;;22.33;22.33;9.70;77.30;;;;;;5074553;28;8772;-72
2021/12/03 01:11:52;;;;;;;;;24.33;24.33;9.70;76.90;;;;;;5074642;28;8804;-72
2021/12/03 01:14:19;;;;;;;;;25.33;25.33;10.10;75.30;;;;;;5073928;28;8780;-73
2021/12/03 01:16:45;;;;;;;;;24.25;24.25;10.00;75.20;;;;;;5074478;28;8753;-72
2021/12/03 01:19:11;;;;;;;;;22.67;22.67;10.40;73.80;;;;;;5074327;28;8768;-72
2021/12/03 01:21:37;;;;;;;;;18.33;18.33;10.30;73.70;;;;;;5074474;28;9474;-72
2021/12/03 01:24:04;;;;;;;;;23.00;23.00;9.70;76.20;;;;;;5074474;28;8773;-74
2021/12/03 01:26:30;;;;;;;;;21.33;21.33;9.70;77.00;;;;;;5074344;28;8870;-73
2021/12/03 01:28:56;;;;;;;;;20.33;20.33;9.70;76.60;;;;;;5074424;28;9465;-71
2021/12/03 01:31:21;;;;;;;;;19.67;19.67;9.80;76.40;;;;;;5074216;28;8765;-71
2021/12/03 01:33:48;;;;;;;;;20.00;20.00;10.00;75.60;;;;;;5074112;28;9407;-72
2021/12/03 01:36:15;;;;;;;;;22.33;21.00;9.90;75.40;;;;;;5074204;28;8764;-73
2021/12/03 01:38:41;;;;;;;;;16.67;16.67;9.80;76.30;;;;;;5074380;28;8780;-72
2021/12/03 01:41:07;;;;;;;;;23.67;23.67;9.70;76.70;;;;;;5073040;28;8792;-71
2021/12/03 01:43:33;;;;;;;;;16.00;16.00;9.60;77.20;;;;;;5074080;28;8752;-72
2021/12/03 01:46:04;;;;;;;;;24.00;22.00;9.60;77.20;;;;;;5074068;28;8760;-72
2021/12/03 01:48:31;;;;;;;;;18.00;18.00;9.30;78.70;;;;;;5074059;28;8857;-72
2021/12/03 01:50:57;;;;;;;;;19.33;19.33;9.20;79.30;;;;;;5073995;28;8780;-71
2021/12/03 01:53:28;;;;;;;;;20.00;20.00;9.50;78.30;;;;;;5074196;28;8772;-72
2021/12/03 01:55:58;;;;;;;;;17.00;17.00;9.50;77.70;;;;;;5074100;28;8760;-73
2021/12/03 01:58:24;;;;;;;;;16.33;16.33;9.60;77.50;;;;;;5074302;28;8796;-73
2021/12/03 02:01:02;;;;;;;;;18.00;18.00;9.50;77.60;;;;;;5074036;28;8804;-73
2021/12/03 02:03:31;;;;;;;;;16.67;16.67;9.50;77.90;;;;;;5073947;28;8867;-72
2021/12/03 02:05:58;;;;;;;;;17.00;17.00;9.70;76.50;;;;;;5073687;28;8885;-72
2021/12/03 02:08:24;;;;;;;;;12.33;12.33;9.50;77.60;;;;;;5074069;28;8767;-73
2021/12/03 02:10:51;;;;;;;;;12.00;12.00;10.10;75.30;;;;;;5073832;28;8776;-72
2021/12/03 02:13:17;;;;;;;;;17.67;17.67;9.90;75.10;;;;;;5073832;28;8793;-71
2021/12/03 02:15:44;;;;;;;;;15.00;15.00;9.90;75.50;;;;;;5074037;28;8815;-71
2021/12/03 02:18:11;;;;;;;;;16.00;16.00;9.90;75.60;;;;;;5073672;28;8768;-70
2021/12/03 02:20:48;;;;;;;;;15.00;15.00;10.30;74.10;;;;;;5073848;28;8769;-72
2021/12/03 02:23:15;;;;;;;;;18.00;18.00;10.40;73.40;;;;;;5073798;28;8875;-71
2021/12/03 02:25:41;;;;;;;;;13.67;13.67;10.30;73.70;;;;;;5073973;28;8768;-72
2021/12/03 02:28:08;;;;;;;;;14.00;14.00;10.30;73.50;;;;;;5076896;28;8816;-72
2021/12/03 02:30:34;;;;;;;;;13.00;13.00;10.10;74.60;;;;;;5077206;28;8772;-71
2021/12/03 02:32:59;;;;;;;;;9.67;9.67;10.30;74.00;;;;;;5077354;28;8768;-71
2021/12/03 02:35:25;;;;;;;;;12.00;12.00;10.30;73.70;;;;;;5077403;28;8772;-72
2021/12/03 02:37:52;;;;;;;;;11.00;11.00;10.30;73.40;;;;;;5077147;28;9422;-72
2021/12/03 02:40:20;;;;;;;;;7.33;7.33;10.10;73.40;;;;;;5077196;28;8787;-71
2021/12/03 02:42:46;;;;;;;;;10.00;10.00;9.80;74.70;;;;;;5076913;28;8804;-71
2021/12/03 02:45:13;;;;;;;;;8.00;8.00;9.90;74.50;;;;;;5076973;28;8772;-72
2021/12/03 02:47:40;;;;;;;;;11.00;11.00;9.50;76.20;;;;;;5076917;28;8765;-72
2021/12/03 02:50:07;;;;;;;;;10.00;10.00;9.70;76.00;;;;;;5076860;28;8857;-72
2021/12/03 02:52:33;;;;;;;;;8.33;8.33;9.90;75.50;;;;;;5076800;28;8879;-72
2021/12/03 02:54:59;;;;;;;;;9.00;9.00;9.90;74.70;;;;;;5076731;28;8883;-72
2021/12/03 02:57:25;;;;;;;;;3.67;3.67;10.20;73.90;;;;;;5075080;28;8827;-72
2021/12/03 02:59:50;;;;;;;;;5.67;5.67;10.00;73.00;;;;;;5076751;28;8761;-73
2021/12/03 03:02:17;;;;;;;;;5.00;5.00;9.90;73.00;;;;;;5076823;28;8906;-72
2021/12/03 03:04:43;;;;;;;;;3.67;3.67;9.90;72.80;;;;;;5076493;28;8737;-72
2021/12/03 03:07:08;;;;;;;;;3.00;3.00;9.90;72.60;;;;;;5076512;28;8824;-72
2021/12/03 03:09:34;;;;;;;;;2.00;2.00;9.90;72.10;;;;;;5076736;28;8777;-72
2021/12/03 03:12:00;;;;;;;;;2.00;2.00;9.60;72.90;;;;;;5076498;28;8866;-72
2021/12/03 03:14:26;;;;;;;;;3.00;3.00;9.50;73.50;;;;;;5076618;28;8871;-71
2021/12/03 03:16:53;;;;;;;;;2.00;2.00;9.60;73.90;;;;;;5076318;28;8773;-72
2021/12/03 03:19:22;;;;;;;;;1.33;1.33;9.60;72.80;;;;;;5076252;28;8757;-71
2021/12/03 03:21:49;;;;;;;;;3.00;3.00;9.80;71.80;;;;;;5076177;28;8819;-71
2021/12/03 03:24:17;;;;;;;;;2.33;2.33;10.10;71.30;;;;;;5076220;28;8911;-72
2021/12/03 03:26:45;;;;;;;;;5.00;5.00;10.20;70.20;;;;;;5076129;28;8808;-73
2021/12/03 03:29:14;;;;;;;;;4.00;4.00;10.20;70.30;;;;;;5076377;28;8760;-71
2021/12/03 03:31:41;;;;;;;;;3.00;3.00;10.20;70.30;;;;;;5076089;28;8761;-72
2021/12/03 03:34:08;;;;;;;;;3.00;3.00;10.10;70.10;;;;;;5075971;28;8796;-72
2021/12/03 03:36:42;;;;;;;;;3.33;3.33;9.90;71.10;;;;;;5075965;28;8772;-72
2021/12/03 03:39:09;;;;;;;;;2.00;2.00;9.80;71.50;;;;;;5075630;28;8752;-71
2021/12/03 03:41:35;;;;;;;;;2.00;2.00;9.70;71.30;;;;;;5075872;28;8796;-71
2021/12/03 03:44:01;;;;;;;;;3.00;3.00;9.50;72.20;;;;;;5075789;28;8773;-71
2021/12/03 03:46:27;;;;;;;;;3.00;3.00;9.50;71.90;;;;;;5075737;28;8772;-71
2021/12/03 03:48:53;;;;;;;;;2.00;2.00;9.00;73.60;;;;;;5075682;28;8795;-72
2021/12/03 03:51:19;;;;;;;;;3.00;3.00;8.80;75.00;;;;;;5075635;28;8801;-71
2021/12/03 03:53:45;;;;;;;;;2.67;2.67;8.50;76.70;;;;;;5075781;28;8790;-71
2021/12/03 03:56:11;;;;;;;;;2.33;2.33;8.60;76.80;;;;;;5075423;28;8845;-71
2021/12/03 03:58:38;;;;;;;;;4.00;4.00;8.60;76.70;;;;;;5075747;28;9422;-71
2021/12/03 04:01:08;;;;;;;;;5.67;5.67;8.30;77.40;;;;;;5075365;28;8927;-71
2021/12/03 04:03:34;;;;;;;;;6.00;6.00;8.10;78.80;;;;;;5075648;28;8772;-71
2021/12/03 04:06:01;;;;;;;;;4.00;4.00;8.10;78.40;;;;;;5075328;28;8814;-71
2021/12/03 04:08:30;;;;;;;;;4.00;4.00;8.20;79.00;;;;;;5075624;28;8780;-70
2021/12/03 04:10:57;;;;;;;;;3.33;3.33;8.00;78.40;;;;;;5075321;28;8787;-71
2021/12/03 04:13:23;;;;;;;;;4.00;4.00;7.90;79.80;;;;;;5075527;28;8795;-71
2021/12/03 04:15:49;;;;;;;;;6.00;6.00;8.10;78.80;;;;;;5075101;28;9426;-71
2021/12/03 04:18:15;;;;;;;;;4.00;4.00;8.20;78.40;;;;;;5075117;28;8761;-72
2021/12/03 04:20:41;;;;;;;;;3.00;3.00;8.40;76.80;;;;;;5074956;28;8842;-71
2021/12/03 04:23:07;;;;;;;;;4.67;4.67;8.50;75.70;;;;;;5075374;28;8776;-71
2021/12/03 04:25:34;;;;;;;;;2.33;2.33;8.40;76.00;;;;;;5075237;28;9438;-70
2021/12/03 04:28:01;;;;;;;;;1.00;1.00;7.90;75.90;;;;;;5075248;28;8819;-72
2021/12/03 04:30:29;;;;;;;;;2.33;2.33;7.90;76.50;;;;;;5074979;28;8753;-72
2021/12/03 04:32:56;;;;;;;;;1.00;1.00;8.10;75.50;;;;;;5074969;28;8769;-72
2021/12/03 04:35:23;;;;;;;;;2.00;2.00;8.00;75.30;;;;;;5074832;28;8768;-72
2021/12/03 04:37:49;;;;;;;;;1.00;1.00;7.70;76.00;;;;;;5074905;28;8749;-72
2021/12/03 04:40:17;;;;;;;;;2.00;2.00;7.60;76.50;;;;;;5063403;28;8791;-71
2021/12/03 04:42:44;;;;;;;;;3.00;3.00;7.20;78.70;;;;;;5074793;28;8788;-71
2021/12/03 04:45:11;;;;;;;;;1.00;1.00;7.00;80.30;;;;;;5060825;28;8791;-71
2021/12/03 04:47:38;;;;;;;;;3.00;2.00;6.80;80.20;;;;;;5069148;28;8773;-72
2021/12/03 04:50:07;;;;;;;;;2.00;2.00;6.60;80.70;;;;;;5054324;28;8782;-71
2021/12/03 04:52:32;;;;;;;;;5.00;3.00;6.60;80.30;;;;;;5054857;28;8763;-72
2021/12/03 04:54:58;;;;;;;;;3.00;3.00;6.90;79.30;;;;;;5054795;28;8821;-71
2021/12/03 04:57:24;;;;;;;;;9.00;7.00;7.10;77.20;;;;;;5054733;28;8811;-71
2021/12/03 04:59:50;;;;;;;;;2.00;1.00;7.20;76.60;;;;;;5054790;28;8840;-71
2021/12/03 05:02:18;;;;;;;;;5.00;3.00;7.20;75.10;;;;;;5054393;28;9394;-72
2021/12/03 05:04:44;;;;;;;;;4.00;4.00;7.20;75.30;;;;;;5054355;28;8795;-71
2021/12/03 05:09:37;;;;;;;;;2.33;2.00;7.10;75.70;;;;;;5054645;28;8781;-71
2021/12/03 05:12:04;;;;;;;;;3.67;3.67;6.80;75.10;;;;;;5054615;28;8786;-70
2021/12/03 05:14:30;;;;;;;;;1.33;1.33;6.70;75.30;;;;;;5054240;28;8905;-73
2021/12/03 05:16:57;;;;;;;;;5.00;5.00;6.50;74.90;;;;;;5054254;28;8775;-70
2021/12/03 05:19:23;;;;;;;;;3.67;3.67;6.50;77.20;;;;;;5054363;28;8825;-76
2021/12/03 05:21:49;;;;;;;;;10.33;6.67;6.70;76.30;;;;;;5054137;28;8834;-76
2021/12/03 05:24:16;;;;;;;;;3.00;3.00;6.90;75.50;;;;;;5054205;28;8852;-73
2021/12/03 05:26:44;;;;;;;;;6.00;6.00;6.50;75.50;;;;;;5054182;28;8918;-71
2021/12/03 05:29:11;;;;;;;;;2.00;2.00;6.50;77.20;;;;;;5054246;28;8763;-71
2021/12/03 05:31:37;;;;;;;;;3.00;3.00;6.40;74.30;;;;;;5054513;28;8767;-71
2021/12/03 05:34:05;;;;;;;;;2.00;2.00;5.90;75.70;;;;;;5054300;28;8751;-74
2021/12/03 05:36:31;;;;;;;;;1.33;1.33;5.70;75.40;;;;;;5054115;28;8763;-77
2021/12/03 05:38:57;;;;;;;;;5.33;5.00;5.60;75.10;;;;;;5056998;28;8777;-75
2021/12/03 05:41:23;;;;;;;;;5.00;2.67;5.70;74.90;;;;;;5066530;28;8808;-76
2021/12/03 05:43:49;;;;;;;;;5.00;5.00;5.40;74.80;;;;;;5064608;28;8760;-77
2021/12/03 05:46:15;;;;;;;;;9.67;9.67;5.00;77.00;;;;;;5058403;28;8791;-76
2021/12/03 05:48:41;;;;;;;;;12.50;12.50;5.00;77.70;;;;;;5054013;28;8771;-74
2021/12/03 05:51:06;;;;;;;;;9.75;9.75;5.20;76.60;;;;;;5065104;28;8771;-74
2021/12/03 05:53:33;;;;;;;;;6.50;6.00;5.10;76.60;;;;;;5060609;28;8895;-66
2021/12/03 05:55:59;;;;;;;;;10.50;10.50;5.00;77.00;;;;;;5073997;28;8900;-66
2021/12/03 05:58:25;;;;;;;;;13.25;11.00;5.00;76.90;;;;;;5074514;28;8790;-66
2021/12/03 06:00:51;;;;;;;;;22.00;18.25;5.00;76.50;;;;;;5055560;28;8818;-68
2021/12/03 06:03:17;;;;;;;;;18.25;18.25;4.80;76.50;;;;;;5071620;28;8807;-71
2021/12/03 06:05:43;;;;;;;;;19.00;18.00;4.80;76.60;;;;;;5077605;28;8777;-71
2021/12/03 06:08:09;;;;;;;;;18.50;15.50;4.60;77.30;;;;;;5077501;28;8788;-71
2021/12/03 06:10:35;;;;;;;;;25.25;21.50;4.60;78.20;;;;;;5077546;28;8792;-71
2021/12/03 06:13:01;;;;;;;;;17.00;17.00;4.60;77.30;;;;;;5077359;28;8799;-71
2021/12/03 06:15:27;;;;;;;;;30.50;25.00;4.50;78.10;;;;;;5077747;28;8772;-70
2021/12/03 06:17:54;;;;;;;;;20.50;20.50;4.50;77.60;;;;;;5077652;28;8795;-72
2021/12/03 06:20:20;;;;;;;;;28.25;22.75;4.50;78.60;;;;;;5077401;28;8852;-72
2021/12/03 06:22:47;;;;;;;;;20.50;19.00;4.30;78.40;;;;;;5077323;28;8816;-71
2021/12/03 06:25:15;;;;;;;;;17.00;15.00;4.40;78.40;;;;;;5077282;28;8830;-71
2021/12/03 06:27:41;;;;;;;;;14.50;14.50;4.60;77.50;;;;;;5077581;28;8846;-71
2021/12/03 06:30:14;;;;;;;;;25.75;23.00;4.50;77.90;;;;;;5077386;28;9410;-72
2021/12/03 06:32:40;;;;;;;;;20.50;19.25;4.40;78.30;;;;;;5077501;28;8772;-72
2021/12/03 06:35:09;;;;;;;;;26.00;26.00;4.30;78.30;;;;;;5077355;28;9363;-71
2021/12/03 06:37:35;;;;;;;;;30.50;23.00;4.10;79.60;;;;;;5077169;28;8778;-70
2021/12/03 06:40:02;;;;;;;;;24.00;23.00;4.20;79.90;;;;;;5076692;28;8772;-70
2021/12/03 06:42:29;;;;;;;;;26.75;24.50;4.40;78.80;;;;;;5077126;28;8849;-72
2021/12/03 06:44:54;;;;;;;;;25.00;21.50;4.50;77.90;;;;;;5077153;28;8886;-71
2021/12/03 06:47:20;;;;;;;;;26.75;21.75;4.40;79.30;;;;;;5076996;28;8787;-70
2021/12/03 06:49:47;;;;;;;;;29.75;29.75;4.40;79.10;;;;;;5077001;28;9446;-71
2021/12/03 06:52:15;;;;;;;;;19.00;19.00;4.70;78.40;;;;;;5076787;28;8783;-73
2021/12/03 06:54:41;;;;;;;;;29.00;28.50;4.60;77.40;;;;;;5076749;28;8760;-71
2021/12/03 06:57:08;;;;;;;;;27.25;27.00;4.60;78.50;;;;;;5076874;28;8885;-71
2021/12/03 06:59:36;;;;;;;;;34.25;28.00;4.20;80.20;;;;;;5076948;28;8745;-71
2021/12/03 07:02:02;;;;;;;;;30.50;28.75;4.40;79.50;;;;;;5076813;28;8804;-72
2021/12/03 07:04:28;;;;;;;;;31.25;30.00;4.40;80.30;;;;;;5076586;28;8833;-71
2021/12/03 07:06:54;;;;;;;;;33.75;33.75;4.40;80.40;;;;;;5076466;28;8820;-71
2021/12/03 07:09:20;;;;;;;;;26.50;26.50;4.50;79.20;;;;;;5076464;28;8768;-71
2021/12/03 07:11:46;;;;;;;;;26.50;26.50;4.60;79.60;;;;;;5076285;28;8784;-71
2021/12/03 07:14:13;;;;;;;;;28.50;28.50;4.70;79.70;;;;;;5075597;28;8792;-70
2021/12/03 07:16:39;;;;;;;;;25.50;24.75;4.50;80.70;;;;;;5076299;28;8838;-71
2021/12/03 07:19:05;;;;;;;;;28.25;28.25;4.60;80.70;;;;;;5076274;28;8788;-72
2021/12/03 07:21:31;;;;;;;;;20.25;20.25;4.50;81.10;;;;;;5076173;28;8919;-71
2021/12/03 07:23:57;;;;;;;;;24.50;24.50;4.60;81.20;;;;;;5076445;28;8946;-71
2021/12/03 07:26:24;;;;;;;;;33.00;29.75;5.00;79.50;;;;;;5076018;28;8780;-72
2021/12/03 07:28:51;;;;;;;;;33.25;31.00;5.10;78.60;;;;;;5076454;28;8771;-72
2021/12/03 07:31:17;;;;;;;;;26.00;23.75;5.00;78.90;;;;;;5076040;28;8899;-72
2021/12/03 07:33:43;;;;;;;;;35.00;33.75;5.00;79.10;;;;;;5075987;28;8740;-72
2021/12/03 07:36:09;;;;;;;;;38.25;34.25;5.10;79.10;;;;;;5075811;28;8867;-70
2021/12/03 07:38:36;;;;;;;;;26.25;25.00;5.00;79.60;;;;;;5075839;28;8749;-71
2021/12/03 07:41:03;;;;;;;;;36.25;31.00;5.00;79.60;;;;;;5075701;28;8861;-70
2021/12/03 07:43:29;;;;;;;;;38.25;35.00;5.00;79.70;;;;;;5075797;28;8890;-70
2021/12/03 07:45:55;;;;;;;;;39.00;38.25;5.30;79.10;;;;;;5076237;28;8768;-71
2021/12/03 07:48:24;;;;;;;;;30.00;26.00;5.10;79.50;;;;;;5075691;28;8869;-71
2021/12/03 07:50:51;;;;;;;;;33.25;33.00;5.00;80.30;;;;;;5075588;28;8864;-70
2021/12/03 07:53:18;;;;;;;;;27.75;26.75;5.10;80.30;;;;;;5075573;28;9395;-71
2021/12/03 07:55:48;;;;;;;;;32.00;31.50;4.90;81.20;;;;;;5075767;28;9460;-70
2021/12/03 07:58:14;;;;;;;;;30.25;25.50;4.90;81.20;;;;;;5074325;28;8811;-69
2021/12/03 08:00:41;;;;;;;;;40.25;35.00;5.10;80.70;;;;;;5075345;28;8849;-71
2021/12/03 08:03:07;;;;;;;;;30.75;30.75;5.10;80.70;;;;;;5075376;28;8845;-70
2021/12/03 08:05:33;;;;;;;;;22.50;22.50;5.30;80.00;;;;;;5073939;28;8828;-71
2021/12/03 08:07:59;;;;;;;;;34.50;31.75;5.20;80.00;;;;;;5075579;28;8791;-70
2021/12/03 08:10:26;;;;;;;;;33.00;33.00;5.20;80.30;;;;;;5075280;28;8875;-71
2021/12/03 08:12:52;;;;;;;;;32.75;32.75;5.20;80.90;;;;;;5075469;28;8757;-70
2021/12/03 08:15:18;;;;;;;;;37.50;36.25;5.30;79.90;;;;;;5074469;28;8788;-70
2021/12/03 08:17:48;;;;;;;;;33.75;31.75;5.40;79.70;;;;;;5075013;28;8768;-70
2021/12/03 08:20:15;;;;;;;;;39.25;38.50;5.50;79.70;;;;;;5075069;28;8783;-70
2021/12/03 08:22:42;;;;;;;;;35.00;35.00;5.60;78.80;;;;;;5075232;28;8800;-70
2021/12/03 08:25:08;;;;;;;;;35.25;35.25;5.50;79.90;;;;;;5074333;28;8938;-70
2021/12/03 08:27:34;;;;;;;;;38.00;37.50;5.30;81.10;;;;;;5075104;28;8922;-71
2021/12/03 08:30:00;;;;;;;;;40.75;38.75;5.40;80.30;;;;;;5075137;28;8870;-70
2021/12/03 08:32:26;;;;;;;;;39.50;39.50;5.40;80.80;;;;;;5074855;28;8772;-71
2021/12/03 08:34:52;;;;;;;;;27.75;27.75;5.40;81.00;;;;;;5075096;28;8775;-71
2021/12/03 08:37:19;;;;;;;;;31.75;28.75;5.30;81.30;;;;;;5074872;28;8760;-70
2021/12/03 08:39:44;;;;;;;;;23.75;23.75;5.50;81.20;;;;;;5074787;28;8753;-71
2021/12/03 08:42:12;;;;;;;;;21.25;21.25;5.90;79.30;;;;;;5074611;28;8819;-71
2021/12/03 08:44:38;;;;;;;;;20.00;20.00;6.00;79.10;;;;;;5074634;28;8851;-70
2021/12/03 08:47:06;;;;;;;;;20.75;19.50;6.00;78.70;;;;;;5074879;28;8792;-70
2021/12/03 08:54:56;;;;;;;;;26.75;26.75;6.30;78.40;;;;;;5074580;28;8748;-70
2021/12/03 08:57:34;;;;;;;;;21.00;21.00;6.20;79.30;;;;;;5074687;28;8792;-70
2021/12/03 09:00:11;;;;;;;;;24.00;24.00;6.20;79.70;;;;;;5074774;28;9547;-70
2021/12/03 09:02:38;;;;;;;;;22.25;22.25;6.00;80.30;;;;;;5074683;28;8808;-70
2021/12/03 09:05:04;;;;;;;;;28.00;26.25;6.00;81.70;;;;;;5074458;28;8760;-70
2021/12/03 09:07:30;;;;;;;;;23.00;23.00;6.10;81.00;;;;;;5074175;28;8823;-71
2021/12/03 09:09:57;;;;;;;;;25.00;21.25;6.30;79.90;;;;;;5074655;28;8749;-70
2021/12/03 09:12:23;;;;;;;;;12.00;12.00;6.10;81.50;;;;;;5074362;28;8884;-70
2021/12/03 09:14:55;;;;;;;;;25.75;19.00;6.00;82.20;;;;;;5074294;28;8981;-71
2021/12/03 09:22:28;;;;;;;;;22.75;22.75;6.40;80.60;;;;;;5074286;28;8921;-71
2021/12/03 09:24:54;;;;;;;;;22.50;22.50;6.50;79.80;;;;;;5074255;28;8773;-70
2021/12/03 09:27:20;;;;;;;;;24.50;24.50;6.30;80.50;;;;;;5073215;28;8804;-70
2021/12/03 09:29:47;;;;;;;;;28.25;28.25;6.50;80.10;;;;;;5074405;28;8756;-70
2021/12/03 09:32:21;;;;;;;;;24.50;23.75;6.60;79.40;;;;;;5074374;28;8798;-70
2021/12/03 09:34:47;;;;;;;;;23.75;23.75;6.40;79.90;;;;;;5074312;28;8764;-70
2021/12/03 09:37:13;;;;;;;;;21.75;21.75;6.50;79.80;;;;;;5077647;28;8761;-70
2021/12/03 09:39:43;;;;;;;;;23.00;23.00;6.30;81.30;;;;;;5078186;28;8802;-70
2021/12/03 09:42:10;;;;;;;;;24.00;24.00;6.40;81.30;;;;;;5078356;28;8812;-70
2021/12/03 09:44:41;;;;;;;;;34.75;34.00;6.60;80.60;;;;;;5078234;28;8776;-70
2021/12/03 09:47:07;;;;;;;;;27.25;27.25;6.30;80.70;;;;;;5078015;28;8883;-70
2021/12/03 09:49:37;;;;;;;;;18.50;18.50;6.50;81.20;;;;;;5077945;28;8898;-70
2021/12/03 09:57:04;;;;;;;;;17.25;17.25;6.20;82.70;;;;;;5078083;28;8990;-71
2021/12/03 10:18:32;;;;;;;;;33.50;33.50;6.70;81.50;;;;;;5077548;28;8773;-70
2021/12/03 10:21:39;;;;;;;;;38.00;35.75;6.90;80.60;;;;;;5077255;28;9625;-70
2021/12/03 10:27:49;;;;;;;;;34.75;33.75;6.50;82.30;;;;;;5076433;28;8804;-71
2021/12/03 10:33:07;;;;;;;;;31.00;29.75;6.70;81.40;;;;;;5077010;28;8768;-70
2021/12/03 10:35:35;;;;;;;;;26.25;26.25;7.00;80.70;;;;;;5075524;28;8826;-71
2021/12/03 10:43:21;;;;;;;;;30.50;30.50;7.00;79.60;;;;;;5077055;28;8772;-70
2021/12/03 10:49:20;;;;;;;;;25.00;25.00;6.50;82.00;;;;;;5075887;28;8769;-70
2021/12/03 10:54:54;;;;;;;;;36.25;34.25;6.90;81.60;;;;;;5076793;28;8761;-70
2021/12/03 11:30:15;;;;;;;;;32.75;32.75;6.90;81.20;;;;;;5076180;28;8945;-70
2021/12/03 11:41:18;;;;;;;;;28.50;28.50;6.90;81.90;;;;;;5076151;28;8764;-71
2021/12/03 13:30:08;;;;;;;;;67.75;56.00;8.40;68.20;;;;;;5057943;28;8925;-70
2021/12/03 14:37:46;;;;;;;;;57.50;46.75;8.00;69.00;;;;;;5070503;28;8871;-68
2021/12/03 14:40:21;;;;;;;;;45.25;41.50;8.50;68.00;;;;;;5067076;28;8802;-69
2021/12/03 14:51:47;;;;;;;;;55.75;45.00;8.40;67.50;;;;;;5073602;28;8809;-71
2021/12/03 14:57:18;;;;;;;;;48.50;44.00;8.00;69.40;;;;;;5075158;28;8788;-69
2021/12/03 14:59:57;;;;;;;;;52.25;44.25;8.40;68.40;;;;;;5070734;28;8775;-70
2021/12/03 15:02:51;;;;;;;;;53.50;45.25;8.10;69.10;;;;;;5073068;28;8879;-72
2021/12/03 15:08:06;;;;;;;;;45.00;41.50;7.90;69.40;;;;;;5059304;28;9453;-71
2021/12/03 15:10:48;;;;;;;;;56.75;44.00;7.90;69.70;;;;;;5076440;28;8765;-75
2021/12/03 15:14:23;;;;;;;;;49.50;43.00;7.70;70.50;;;;;;5069347;28;8813;-74
2021/12/03 15:17:18;;;;;;;;;52.50;44.50;7.90;69.10;;;;;;5057586;28;8842;-74
2021/12/03 15:58:20;;;;;;;;;59.00;47.50;7.70;70.50;;;;;;5055806;28;8795;-72
2021/12/03 16:08:35;;;;;;;;;48.50;41.00;7.40;71.20;;;;;;5055549;28;8763;-73
2021/12/03 16:51:52;;;;;;;;;81.50;68.00;9.50;62.50;;;;;;5052529;28;8744;-76
2021/12/03 16:55:02;;;;;;;;;78.25;64.00;9.40;62.90;;;;;;5056328;28;8764;-72
2021/12/03 16:57:09;;;;;;;;;74.00;61.75;9.60;61.90;;;;;;5068929;28;8827;-72
2021/12/03 16:59:37;;;;;;;;;70.50;57.25;9.30;62.40;;;;;;5074498;28;8849;-72
2021/12/03 17:02:07;;;;;;;;;75.50;61.75;9.20;62.20;;;;;;5074303;28;8799;-73
2021/12/03 17:12:14;;;;;;;;;83.25;63.50;9.30;61.20;;;;;;5074288;28;8850;-73
2021/12/03 17:28:58;;;;;;;;;79.25;65.00;9.50;60.30;;;;;;5074503;28;8911;-72
2021/12/03 17:50:07;;;;;;;;;60.00;51.25;9.30;59.20;;;;;;5074220;28;8791;-73
2021/12/03 17:53:18;;;;;;;;;59.50;51.00;9.30;58.60;;;;;;5073838;28;8756;-73
2021/12/03 17:58:25;;;;;;;;;53.00;46.00;8.40;60.70;;;;;;5077226;28;8781;-73
2021/12/03 18:11:20;;;;;;;;;51.00;45.00;8.20;62.10;;;;;;5078002;28;8768;-77
2021/12/03 18:14:18;;;;;;;;;45.75;41.75;8.40;61.40;;;;;;5077515;28;8796;-76
2021/12/03 18:43:59;;;;;;;;;46.50;42.75;7.90;62.50;;;;;;5072986;28;8753;-75
2021/12/03 18:56:53;;;;;;;;;53.25;46.50;9.00;59.00;;;;;;5076139;28;8794;-71
2021/12/03 18:59:19;;;;;;;;;50.50;44.75;8.40;59.50;;;;;;5076399;28;8745;-73
2021/12/03 19:01:45;;;;;;;;;56.00;46.50;7.80;61.90;;;;;;5075750;28;8797;-72
2021/12/03 19:04:37;;;;;;;;;53.50;42.75;7.60;62.10;;;;;;5073377;28;8753;-78
2021/12/03 19:07:14;;;;;;;;;54.75;46.50;7.40;62.80;;;;;;5074352;28;8787;-74
2021/12/03 19:09:45;;;;;;;;;44.75;41.00;7.70;62.40;;;;;;5075650;28;8895;-71
2021/12/03 19:12:15;;;;;;;;;46.50;39.75;7.80;61.90;;;;;;5076395;28;8778;-77
2021/12/03 19:14:53;;;;;;;;;61.00;49.50;7.60;62.30;;;;;;5073268;28;8797;-72
2021/12/03 19:17:19;;;;;;;;;59.00;48.50;7.60;62.30;;;;;;5067303;28;8812;-74
2021/12/03 19:19:47;;;;;;;;;63.00;49.50;7.90;62.00;;;;;;5073409;28;8803;-72
2021/12/03 19:22:14;;;;;;;;;62.75;50.00;8.00;60.80;;;;;;5074909;28;8792;-76
2021/12/03 19:24:40;;;;;;;;;55.00;47.50;7.80;61.30;;;;;;5072088;28;8757;-78
2021/12/03 19:27:08;;;;;;;;;56.75;48.00;8.00;61.10;;;;;;5074906;28;8784;-76
2021/12/03 19:29:34;;;;;;;;;61.00;52.00;8.00;60.50;;;;;;5075049;28;9437;-77
2021/12/03 19:32:00;;;;;;;;;66.25;56.00;8.00;61.10;;;;;;5072364;28;9434;-76
2021/12/03 19:34:26;;;;;;;;;63.00;54.00;8.40;60.70;;;;;;5073277;28;8780;-76
2021/12/03 19:36:54;;;;;;;;;69.75;55.75;8.50;60.00;;;;;;5070967;28;8801;-77
2021/12/03 19:39:22;;;;;;;;;62.25;53.00;8.70;58.90;;;;;;5072218;28;8761;-76
2021/12/03 19:41:55;;;;;;;;;57.25;49.00;8.90;57.60;;;;;;5072640;28;8788;-77
2021/12/03 19:44:28;;;;;;;;;65.25;55.00;8.50;58.80;;;;;;5072808;28;8771;-77
2021/12/03 19:46:54;;;;;;;;;69.75;57.75;8.70;59.20;;;;;;5073151;28;9524;-78
2021/12/03 19:49:33;;;;;;;;;73.75;58.50;9.00;58.50;;;;;;5062577;28;8782;-76
2021/12/03 19:52:48;;;;;;;;;67.00;56.00;9.00;57.60;;;;;;5070295;28;8792;-77
2021/12/03 19:54:45;;;;;;;;;71.50;58.00;8.90;57.80;;;;;;5065898;28;8780;-77
2021/12/03 19:57:11;;;;;;;;;65.50;55.00;9.00;56.20;;;;;;5074270;28;8850;-76
2021/12/03 19:59:37;;;;;;;;;62.00;53.25;9.10;56.10;;;;;;5073560;28;8769;-76
2021/12/03 20:02:03;;;;;;;;;69.00;56.75;9.20;55.80;;;;;;5073964;28;8888;-76
2021/12/03 20:04:29;;;;;;;;;71.00;59.00;9.00;56.50;;;;;;5072480;28;8807;-76
2021/12/03 20:06:55;;;;;;;;;62.50;53.00;8.80;57.10;;;;;;5073984;28;9419;-77
2021/12/03 20:09:24;;;;;;;;;61.75;52.75;8.50;57.10;;;;;;5073046;28;8769;-74
2021/12/03 20:11:54;;;;;;;;;51.25;44.25;8.60;57.30;;;;;;5072099;28;8784;-75
2021/12/03 20:14:21;;;;;;;;;57.75;49.00;8.30;56.80;;;;;;5074034;28;8764;-75
2021/12/03 20:17:02;;;;;;;;;54.75;46.75;8.20;58.00;;;;;;5074127;28;8849;-77
2021/12/03 20:19:33;;;;;;;;;66.50;52.25;8.10;57.80;;;;;;5069479;28;9433;-76
2021/12/03 20:22:08;;;;;;;;;53.50;47.00;8.40;57.20;;;;;;5068298;28;9219;-76
2021/12/03 20:27:21;;;;;;;;;60.00;51.00;8.60;56.10;;;;;;5069810;28;8903;-76
2021/12/03 20:29:56;;;;;;;;;56.50;49.00;8.40;56.40;;;;;;5068663;28;8777;-75
2021/12/03 20:32:34;;;;;;;;;58.50;49.25;8.50;56.20;;;;;;5070627;28;8759;-76
2021/12/03 20:37:39;;;;;;;;;52.75;45.00;7.90;57.20;;;;;;5072199;28;8785;-77
2021/12/03 20:40:32;;;;;;;;;52.75;42.00;7.80;57.10;;;;;;5072300;28;8800;-76
2021/12/03 20:45:44;;;;;;;;;49.50;44.25;7.80;57.10;;;;;;5066527;28;8751;-76